sensor_id;sensor_type;location;lat;lon;timestamp;P1;durP1;ratioP1;P2;durP2;ratioP2
64011;SDS011;50211;52.768;12.124;2023-05-10T00:02:23;6.03;;;3.37;;
64011;SDS011;50211;52.768;12.124;2023-05-10T00:04:49;4.47;;;2.93;;
64011;SDS011;50211;52.768;12.124;2023-05-10T00:07:15;9.67;;;3.23;;
64011;SDS011;50211;52.768;12.124;2023-05-10T00:09:42;4.17;;;2.77;;
64011;SDS011;50211;52.768;12.124;2023-05-10T00:12:08;4.67;;;3.13;;
64011;SDS011;50211;52.768;12.124;2023-05-10T00:14:33;7.63;;;3.70;;
64011;SDS011;50211;52.768;12.124;2023-05-10T00:16:59;5.90;;;3.30;;
64011;SDS011;50211;52.768;12.124;2023-05-10T00:19:25;8.00;;;3.40;;
64011;SDS011;50211;52.768;12.124;2023-05-10T00:21:50;5.40;;;3.37;;
64011;SDS011;50211;52.768;12.124;2023-05-10T00:24:16;6.00;;;3.47;;
64011;SDS011;50211;52.768;12.124;2023-05-10T00:26:41;6.83;;;3.07;;
64011;SDS011;50211;52.768;12.124;2023-05-10T00:29:07;9.10;;;3.77;;
64011;SDS011;50211;52.768;12.124;2023-05-10T00:31:32;5.10;;;3.43;;
64011;SDS011;50211;52.768;12.124;2023-05-10T00:33:58;8.13;;;3.33;;
64011;SDS011;50211;52.768;12.124;2023-05-10T00:36:23;4.27;;;3.30;;
64011;SDS011;50211;52.768;12.124;2023-05-10T00:38:49;5.33;;;3.23;;
64011;SDS011;50211;52.768;12.124;2023-05-10T00:41:15;5.23;;;3.37;;
64011;SDS011;50211;52.768;12.124;2023-05-10T00:43:40;13.83;;;4.43;;
64011;SDS011;50211;52.768;12.124;2023-05-10T00:46:06;5.90;;;3.50;;
64011;SDS011;50211;52.768;12.124;2023-05-10T00:48:32;5.87;;;3.47;;
64011;SDS011;50211;52.768;12.124;2023-05-10T00:50:58;8.90;;;3.90;;
64011;SDS011;50211;52.768;12.124;2023-05-10T00:53:24;5.10;;;3.67;;
64011;SDS011;50211;52.768;12.124;2023-05-10T00:55:49;9.87;;;3.60;;
64011;SDS011;50211;52.768;12.124;2023-05-10T00:58:15;6.43;;;3.77;;
64011;SDS011;50211;52.768;12.124;2023-05-10T01:00:42;7.20;;;3.70;;
64011;SDS011;50211;52.768;12.124;2023-05-10T01:03:09;4.77;;;3.57;;
64011;SDS011;50211;52.768;12.124;2023-05-10T01:05:36;6.60;;;4.13;;
64011;SDS011;50211;52.768;12.124;2023-05-10T01:08:02;10.30;;;4.10;;
64011;SDS011;50211;52.768;12.124;2023-05-10T01:10:28;5.83;;;3.70;;
64011;SDS011;50211;52.768;12.124;2023-05-10T01:12:53;6.00;;;3.60;;
64011;SDS011;50211;52.768;12.124;2023-05-10T01:15:20;7.17;;;3.87;;
64011;SDS011;50211;52.768;12.124;2023-05-10T01:17:46;5.57;;;3.47;;
64011;SDS011;50211;52.768;12.124;2023-05-10T01:20:13;5.67;;;3.80;;
64011;SDS011;50211;52.768;12.124;2023-05-10T01:22:42;6.70;;;4.13;;
64011;SDS011;50211;52.768;12.124;2023-05-10T01:33:43;7.07;;;3.93;;
64011;SDS011;50211;52.768;12.124;2023-05-10T01:36:38;6.13;;;4.47;;
64011;SDS011;50211;52.768;12.124;2023-05-10T01:39:11;7.20;;;4.17;;
64011;SDS011;50211;52.768;12.124;2023-05-10T01:41:49;7.13;;;3.97;;
64011;SDS011;50211;52.768;12.124;2023-05-10T01:44:24;6.70;;;3.97;;
64011;SDS011;50211;52.768;12.124;2023-05-10T01:47:09;5.40;;;3.90;;
64011;SDS011;50211;52.768;12.124;2023-05-10T01:49:45;6.53;;;4.37;;
64011;SDS011;50211;52.768;12.124;2023-05-10T01:52:16;7.90;;;4.37;;
64011;SDS011;50211;52.768;12.124;2023-05-10T01:54:50;7.23;;;4.23;;
64011;SDS011;50211;52.768;12.124;2023-05-10T01:57:20;7.13;;;3.67;;
64011;SDS011;50211;52.768;12.124;2023-05-10T01:59:50;7.43;;;4.40;;
64011;SDS011;50211;52.768;12.124;2023-05-10T02:02:17;6.80;;;3.80;;
64011;SDS011;50211;52.768;12.124;2023-05-10T02:04:45;6.03;;;4.10;;
64011;SDS011;50211;52.768;12.124;2023-05-10T02:07:12;6.70;;;4.43;;
64011;SDS011;50211;52.768;12.124;2023-05-10T02:09:39;10.47;;;3.70;;
64011;SDS011;50211;52.768;12.124;2023-05-10T02:12:07;5.50;;;4.23;;
64011;SDS011;50211;52.768;12.124;2023-05-10T02:14:34;5.63;;;3.80;;
64011;SDS011;50211;52.768;12.124;2023-05-10T02:17:02;8.03;;;3.93;;
64011;SDS011;50211;52.768;12.124;2023-05-10T02:19:30;7.23;;;4.23;;
64011;SDS011;50211;52.768;12.124;2023-05-10T02:21:57;4.90;;;3.63;;
64011;SDS011;50211;52.768;12.124;2023-05-10T02:24:25;5.57;;;4.20;;
64011;SDS011;50211;52.768;12.124;2023-05-10T02:26:52;5.70;;;4.20;;
64011;SDS011;50211;52.768;12.124;2023-05-10T02:29:20;7.40;;;4.20;;
64011;SDS011;50211;52.768;12.124;2023-05-10T02:31:49;6.80;;;4.13;;
64011;SDS011;50211;52.768;12.124;2023-05-10T02:34:17;6.40;;;3.83;;
64011;SDS011;50211;52.768;12.124;2023-05-10T02:36:43;5.40;;;3.90;;
64011;SDS011;50211;52.768;12.124;2023-05-10T02:39:09;9.77;;;4.37;;
64011;SDS011;50211;52.768;12.124;2023-05-10T02:41:38;9.47;;;4.03;;
64011;SDS011;50211;52.768;12.124;2023-05-10T02:44:08;6.20;;;3.90;;
64011;SDS011;50211;52.768;12.124;2023-05-10T02:46:34;8.37;;;4.10;;
64011;SDS011;50211;52.768;12.124;2023-05-10T02:49:01;5.97;;;4.03;;
64011;SDS011;50211;52.768;12.124;2023-05-10T02:51:28;7.40;;;4.20;;
64011;SDS011;50211;52.768;12.124;2023-05-10T02:53:59;9.57;;;4.03;;
64011;SDS011;50211;52.768;12.124;2023-05-10T02:56:34;6.23;;;3.83;;
64011;SDS011;50211;52.768;12.124;2023-05-10T02:59:01;8.53;;;4.17;;
64011;SDS011;50211;52.768;12.124;2023-05-10T03:01:26;7.23;;;4.07;;
64011;SDS011;50211;52.768;12.124;2023-05-10T03:03:52;6.70;;;3.97;;
64011;SDS011;50211;52.768;12.124;2023-05-10T03:06:18;7.20;;;3.83;;
64011;SDS011;50211;52.768;12.124;2023-05-10T03:08:44;6.13;;;4.47;;
64011;SDS011;50211;52.768;12.124;2023-05-10T03:11:24;6.40;;;3.80;;
64011;SDS011;50211;52.768;12.124;2023-05-10T03:16:42;6.47;;;3.90;;
64011;SDS011;50211;52.768;12.124;2023-05-10T03:19:17;6.00;;;4.00;;
64011;SDS011;50211;52.768;12.124;2023-05-10T03:21:50;6.13;;;3.90;;
64011;SDS011;50211;52.768;12.124;2023-05-10T03:24:18;5.37;;;3.73;;
64011;SDS011;50211;52.768;12.124;2023-05-10T03:26:46;7.20;;;4.17;;
64011;SDS011;50211;52.768;12.124;2023-05-10T03:29:13;6.50;;;4.20;;
64011;SDS011;50211;52.768;12.124;2023-05-10T03:31:40;9.97;;;4.13;;
64011;SDS011;50211;52.768;12.124;2023-05-10T03:34:06;7.77;;;4.50;;
64011;SDS011;50211;52.768;12.124;2023-05-10T03:36:32;7.50;;;3.63;;
64011;SDS011;50211;52.768;12.124;2023-05-10T03:38:57;5.87;;;4.30;;
64011;SDS011;50211;52.768;12.124;2023-05-10T03:41:23;7.33;;;4.43;;
64011;SDS011;50211;52.768;12.124;2023-05-10T03:43:50;6.40;;;4.63;;
64011;SDS011;50211;52.768;12.124;2023-05-10T03:46:15;8.17;;;4.00;;
64011;SDS011;50211;52.768;12.124;2023-05-10T03:48:41;8.20;;;4.67;;
64011;SDS011;50211;52.768;12.124;2023-05-10T03:51:06;8.10;;;4.33;;
64011;SDS011;50211;52.768;12.124;2023-05-10T03:53:32;5.60;;;4.37;;
64011;SDS011;50211;52.768;12.124;2023-05-10T03:55:57;7.13;;;4.13;;
64011;SDS011;50211;52.768;12.124;2023-05-10T03:58:23;7.57;;;4.40;;
64011;SDS011;50211;52.768;12.124;2023-05-10T04:00:48;8.73;;;4.47;;
64011;SDS011;50211;52.768;12.124;2023-05-10T04:03:14;5.97;;;4.07;;
64011;SDS011;50211;52.768;12.124;2023-05-10T04:05:39;6.50;;;4.00;;
64011;SDS011;50211;52.768;12.124;2023-05-10T04:08:05;8.40;;;4.23;;
64011;SDS011;50211;52.768;12.124;2023-05-10T04:10:31;7.63;;;3.90;;
64011;SDS011;50211;52.768;12.124;2023-05-10T04:12:58;7.07;;;4.00;;
64011;SDS011;50211;52.768;12.124;2023-05-10T04:15:23;5.53;;;3.77;;
64011;SDS011;50211;52.768;12.124;2023-05-10T04:17:49;6.83;;;4.17;;
64011;SDS011;50211;52.768;12.124;2023-05-10T04:20:15;6.93;;;3.73;;
64011;SDS011;50211;52.768;12.124;2023-05-10T04:22:40;10.87;;;4.20;;
64011;SDS011;50211;52.768;12.124;2023-05-10T04:25:06;6.87;;;4.47;;
64011;SDS011;50211;52.768;12.124;2023-05-10T04:27:32;7.40;;;4.47;;
64011;SDS011;50211;52.768;12.124;2023-05-10T04:29:57;7.50;;;4.50;;
64011;SDS011;50211;52.768;12.124;2023-05-10T04:32:23;9.20;;;3.90;;
64011;SDS011;50211;52.768;12.124;2023-05-10T04:34:49;6.87;;;4.23;;
64011;SDS011;50211;52.768;12.124;2023-05-10T04:37:15;6.83;;;4.23;;
64011;SDS011;50211;52.768;12.124;2023-05-10T04:39:41;5.53;;;4.33;;
64011;SDS011;50211;52.768;12.124;2023-05-10T04:42:06;14.03;;;4.57;;
64011;SDS011;50211;52.768;12.124;2023-05-10T04:44:32;8.50;;;3.80;;
64011;SDS011;50211;52.768;12.124;2023-05-10T04:46:58;9.87;;;4.60;;
64011;SDS011;50211;52.768;12.124;2023-05-10T04:49:24;7.20;;;4.67;;
64011;SDS011;50211;52.768;12.124;2023-05-10T04:51:49;5.33;;;3.70;;
64011;SDS011;50211;52.768;12.124;2023-05-10T04:54:15;7.17;;;4.03;;
64011;SDS011;50211;52.768;12.124;2023-05-10T04:56:40;7.27;;;4.30;;
64011;SDS011;50211;52.768;12.124;2023-05-10T04:59:06;5.30;;;4.17;;
64011;SDS011;50211;52.768;12.124;2023-05-10T05:01:31;6.50;;;3.90;;
64011;SDS011;50211;52.768;12.124;2023-05-10T05:03:57;6.43;;;3.63;;
64011;SDS011;50211;52.768;12.124;2023-05-10T05:06:23;8.97;;;3.80;;
64011;SDS011;50211;52.768;12.124;2023-05-10T05:08:50;7.90;;;4.47;;
64011;SDS011;50211;52.768;12.124;2023-05-10T05:11:15;9.37;;;4.23;;
64011;SDS011;50211;52.768;12.124;2023-05-10T05:13:41;6.00;;;3.87;;
64011;SDS011;50211;52.768;12.124;2023-05-10T05:16:07;7.03;;;4.33;;
64011;SDS011;50211;52.768;12.124;2023-05-10T05:18:32;5.93;;;4.30;;
64011;SDS011;50211;52.768;12.124;2023-05-10T05:20:58;6.63;;;3.83;;
64011;SDS011;50211;52.768;12.124;2023-05-10T05:23:24;6.83;;;3.83;;
64011;SDS011;50211;52.768;12.124;2023-05-10T05:25:51;6.40;;;3.50;;
64011;SDS011;50211;52.768;12.124;2023-05-10T05:28:19;7.47;;;4.20;;
64011;SDS011;50211;52.768;12.124;2023-05-10T05:30:45;5.50;;;4.30;;
64011;SDS011;50211;52.768;12.124;2023-05-10T05:33:13;5.30;;;3.50;;
64011;SDS011;50211;52.768;12.124;2023-05-10T05:35:40;5.53;;;4.07;;
64011;SDS011;50211;52.768;12.124;2023-05-10T05:38:06;7.37;;;4.30;;
64011;SDS011;50211;52.768;12.124;2023-05-10T05:40:31;6.00;;;4.10;;
64011;SDS011;50211;52.768;12.124;2023-05-10T05:42:57;7.30;;;4.00;;
64011;SDS011;50211;52.768;12.124;2023-05-10T05:45:22;6.30;;;4.30;;
64011;SDS011;50211;52.768;12.124;2023-05-10T05:47:48;6.33;;;3.97;;
64011;SDS011;50211;52.768;12.124;2023-05-10T05:50:13;5.83;;;3.93;;
64011;SDS011;50211;52.768;12.124;2023-05-10T05:52:39;7.27;;;3.93;;
64011;SDS011;50211;52.768;12.124;2023-05-10T05:55:05;6.53;;;3.80;;
64011;SDS011;50211;52.768;12.124;2023-05-10T05:57:30;5.50;;;3.77;;
64011;SDS011;50211;52.768;12.124;2023-05-10T05:59:56;8.77;;;3.90;;
64011;SDS011;50211;52.768;12.124;2023-05-10T06:02:21;8.53;;;3.77;;
64011;SDS011;50211;52.768;12.124;2023-05-10T06:04:47;5.50;;;3.92;;
64011;SDS011;50211;52.768;12.124;2023-05-10T06:07:12;6.70;;;3.87;;
64011;SDS011;50211;52.768;12.124;2023-05-10T06:09:38;6.28;;;3.60;;
64011;SDS011;50211;52.768;12.124;2023-05-10T06:12:03;5.95;;;3.92;;
64011;SDS011;50211;52.768;12.124;2023-05-10T06:14:30;5.82;;;3.20;;
64011;SDS011;50211;52.768;12.124;2023-05-10T06:16:55;5.30;;;3.55;;
64011;SDS011;50211;52.768;12.124;2023-05-10T06:19:20;5.38;;;4.07;;
64011;SDS011;50211;52.768;12.124;2023-05-10T06:21:46;6.13;;;3.47;;
64011;SDS011;50211;52.768;12.124;2023-05-10T06:24:12;4.15;;;3.30;;
64011;SDS011;50211;52.768;12.124;2023-05-10T06:26:37;4.37;;;3.40;;
64011;SDS011;50211;52.768;12.124;2023-05-10T06:29:03;4.95;;;3.67;;
64011;SDS011;50211;52.768;12.124;2023-05-10T06:31:28;5.50;;;3.42;;
64011;SDS011;50211;52.768;12.124;2023-05-10T06:33:54;5.97;;;3.90;;
64011;SDS011;50211;52.768;12.124;2023-05-10T06:36:19;7.95;;;4.22;;
64011;SDS011;50211;52.768;12.124;2023-05-10T06:38:44;4.82;;;3.53;;
64011;SDS011;50211;52.768;12.124;2023-05-10T06:41:10;9.77;;;4.15;;
64011;SDS011;50211;52.768;12.124;2023-05-10T06:43:36;4.80;;;3.47;;
64011;SDS011;50211;52.768;12.124;2023-05-10T06:46:04;6.43;;;3.78;;
64011;SDS011;50211;52.768;12.124;2023-05-10T06:48:30;5.40;;;3.60;;
64011;SDS011;50211;52.768;12.124;2023-05-10T06:50:56;4.88;;;3.30;;
64011;SDS011;50211;52.768;12.124;2023-05-10T06:53:21;3.90;;;3.50;;
64011;SDS011;50211;52.768;12.124;2023-05-10T06:55:46;9.20;;;3.60;;
64011;SDS011;50211;52.768;12.124;2023-05-10T06:58:13;5.13;;;3.35;;
64011;SDS011;50211;52.768;12.124;2023-05-10T07:00:39;6.50;;;3.50;;
64011;SDS011;50211;52.768;12.124;2023-05-10T07:03:05;9.52;;;3.22;;
64011;SDS011;50211;52.768;12.124;2023-05-10T07:05:31;7.30;;;3.45;;
64011;SDS011;50211;52.768;12.124;2023-05-10T07:07:56;5.75;;;3.55;;
64011;SDS011;50211;52.768;12.124;2023-05-10T07:10:22;7.93;;;3.80;;
64011;SDS011;50211;52.768;12.124;2023-05-10T07:12:47;4.80;;;3.33;;
64011;SDS011;50211;52.768;12.124;2023-05-10T07:15:13;6.65;;;3.42;;
64011;SDS011;50211;52.768;12.124;2023-05-10T07:17:38;6.28;;;3.33;;
64011;SDS011;50211;52.768;12.124;2023-05-10T07:20:04;7.47;;;3.35;;
64011;SDS011;50211;52.768;12.124;2023-05-10T07:22:30;9.10;;;3.47;;
64011;SDS011;50211;52.768;12.124;2023-05-10T07:24:56;4.85;;;3.47;;
64011;SDS011;50211;52.768;12.124;2023-05-10T07:27:21;4.95;;;3.95;;
64011;SDS011;50211;52.768;12.124;2023-05-10T07:29:47;7.22;;;3.63;;
64011;SDS011;50211;52.768;12.124;2023-05-10T07:32:12;4.90;;;3.25;;
64011;SDS011;50211;52.768;12.124;2023-05-10T07:34:38;5.85;;;3.15;;
64011;SDS011;50211;52.768;12.124;2023-05-10T07:37:03;4.82;;;3.38;;
64011;SDS011;50211;52.768;12.124;2023-05-10T07:39:29;6.88;;;3.65;;
64011;SDS011;50211;52.768;12.124;2023-05-10T07:41:54;6.30;;;3.30;;
64011;SDS011;50211;52.768;12.124;2023-05-10T07:44:20;4.20;;;2.85;;
64011;SDS011;50211;52.768;12.124;2023-05-10T07:46:46;7.20;;;3.53;;
64011;SDS011;50211;52.768;12.124;2023-05-10T07:49:12;9.18;;;2.92;;
64011;SDS011;50211;52.768;12.124;2023-05-10T07:51:38;5.47;;;3.63;;
64011;SDS011;50211;52.768;12.124;2023-05-10T07:54:03;7.10;;;3.45;;
64011;SDS011;50211;52.768;12.124;2023-05-10T07:56:30;5.03;;;3.20;;
64011;SDS011;50211;52.768;12.124;2023-05-10T07:58:56;3.80;;;3.20;;
64011;SDS011;50211;52.768;12.124;2023-05-10T08:01:26;7.28;;;3.20;;
64011;SDS011;50211;52.768;12.124;2023-05-10T08:03:54;7.00;;;3.13;;
64011;SDS011;50211;52.768;12.124;2023-05-10T08:06:20;5.40;;;3.25;;
64011;SDS011;50211;52.768;12.124;2023-05-10T08:08:46;4.47;;;3.35;;
64011;SDS011;50211;52.768;12.124;2023-05-10T08:11:17;3.50;;;3.05;;
64011;SDS011;50211;52.768;12.124;2023-05-10T08:13:43;6.82;;;3.00;;
64011;SDS011;50211;52.768;12.124;2023-05-10T08:16:12;5.63;;;3.33;;
64011;SDS011;50211;52.768;12.124;2023-05-10T08:18:38;4.18;;;2.88;;
64011;SDS011;50211;52.768;12.124;2023-05-10T08:21:04;5.13;;;2.58;;
64011;SDS011;50211;52.768;12.124;2023-05-10T08:23:30;6.95;;;2.50;;
64011;SDS011;50211;52.768;12.124;2023-05-10T08:25:56;3.85;;;2.70;;
64011;SDS011;50211;52.768;12.124;2023-05-10T08:28:21;4.90;;;2.80;;
64011;SDS011;50211;52.768;12.124;2023-05-10T08:30:47;6.55;;;3.05;;
64011;SDS011;50211;52.768;12.124;2023-05-10T08:33:13;5.40;;;3.25;;
64011;SDS011;50211;52.768;12.124;2023-05-10T08:35:38;4.25;;;2.97;;
64011;SDS011;50211;52.768;12.124;2023-05-10T08:38:04;6.30;;;3.05;;
64011;SDS011;50211;52.768;12.124;2023-05-10T08:40:29;3.90;;;2.90;;
64011;SDS011;50211;52.768;12.124;2023-05-10T08:43:28;4.40;;;2.97;;
64011;SDS011;50211;52.768;12.124;2023-05-10T08:45:47;4.38;;;2.97;;
64011;SDS011;50211;52.768;12.124;2023-05-10T08:48:14;3.70;;;2.70;;
64011;SDS011;50211;52.768;12.124;2023-05-10T08:50:41;4.20;;;2.85;;
64011;SDS011;50211;52.768;12.124;2023-05-10T08:53:11;4.28;;;2.65;;
64011;SDS011;50211;52.768;12.124;2023-05-10T08:55:38;5.75;;;2.92;;
64011;SDS011;50211;52.768;12.124;2023-05-10T08:58:05;8.20;;;2.60;;
64011;SDS011;50211;52.768;12.124;2023-05-10T09:00:31;9.85;;;3.17;;
64011;SDS011;50211;52.768;12.124;2023-05-10T09:02:57;3.25;;;2.85;;
64011;SDS011;50211;52.768;12.124;2023-05-10T09:05:24;4.60;;;2.75;;
64011;SDS011;50211;52.768;12.124;2023-05-10T09:07:49;7.50;;;2.75;;
64011;SDS011;50211;52.768;12.124;2023-05-10T09:10:15;3.20;;;2.60;;
64011;SDS011;50211;52.768;12.124;2023-05-10T09:12:41;4.28;;;2.83;;
64011;SDS011;50211;52.768;12.124;2023-05-10T09:15:09;3.83;;;2.80;;
64011;SDS011;50211;52.768;12.124;2023-05-10T09:17:35;9.35;;;3.47;;
64011;SDS011;50211;52.768;12.124;2023-05-10T09:20:04;6.78;;;2.78;;
64011;SDS011;50211;52.768;12.124;2023-05-10T09:22:30;4.70;;;2.97;;
64011;SDS011;50211;52.768;12.124;2023-05-10T09:27:36;4.30;;;3.00;;
64011;SDS011;50211;52.768;12.124;2023-05-10T09:30:03;3.40;;;2.45;;
64011;SDS011;50211;52.768;12.124;2023-05-10T09:32:39;3.47;;;2.67;;
64011;SDS011;50211;52.768;12.124;2023-05-10T09:35:07;3.05;;;2.75;;
64011;SDS011;50211;52.768;12.124;2023-05-10T09:37:36;5.65;;;2.33;;
64011;SDS011;50211;52.768;12.124;2023-05-10T09:40:06;3.35;;;2.85;;
64011;SDS011;50211;52.768;12.124;2023-05-10T09:42:33;6.93;;;3.17;;
64011;SDS011;50211;52.768;12.124;2023-05-10T09:45:02;3.38;;;2.67;;
64011;SDS011;50211;52.768;12.124;2023-05-10T09:47:31;3.65;;;2.47;;
64011;SDS011;50211;52.768;12.124;2023-05-10T09:49:58;3.22;;;2.63;;
64011;SDS011;50211;52.768;12.124;2023-05-10T09:52:28;3.40;;;2.60;;
64011;SDS011;50211;52.768;12.124;2023-05-10T09:55:10;5.47;;;3.28;;
64011;SDS011;50211;52.768;12.124;2023-05-10T09:57:36;5.22;;;2.85;;
64011;SDS011;50211;52.768;12.124;2023-05-10T10:00:01;8.98;;;2.80;;
64011;SDS011;50211;52.768;12.124;2023-05-10T10:02:29;4.75;;;2.72;;
64011;SDS011;50211;52.768;12.124;2023-05-10T10:04:56;6.38;;;3.40;;
64011;SDS011;50211;52.768;12.124;2023-05-10T10:07:22;3.88;;;2.83;;
64011;SDS011;50211;52.768;12.124;2023-05-10T10:09:50;3.28;;;2.65;;
64011;SDS011;50211;52.768;12.124;2023-05-10T10:12:16;10.20;;;3.05;;
64011;SDS011;50211;52.768;12.124;2023-05-10T10:14:41;4.28;;;2.88;;
64011;SDS011;50211;52.768;12.124;2023-05-10T10:17:07;4.03;;;3.10;;
64011;SDS011;50211;52.768;12.124;2023-05-10T10:19:33;5.50;;;3.10;;
64011;SDS011;50211;52.768;12.124;2023-05-10T10:22:00;5.38;;;2.92;;
64011;SDS011;50211;52.768;12.124;2023-05-10T10:24:25;5.50;;;2.55;;
64011;SDS011;50211;52.768;12.124;2023-05-10T10:26:52;3.55;;;3.00;;
64011;SDS011;50211;52.768;12.124;2023-05-10T10:29:39;8.95;;;6.05;;
64011;SDS011;50211;52.768;12.124;2023-05-10T10:32:23;8.93;;;3.17;;
64011;SDS011;50211;52.768;12.124;2023-05-10T10:34:54;5.07;;;3.65;;
64011;SDS011;50211;52.768;12.124;2023-05-10T10:37:21;4.45;;;3.22;;
64011;SDS011;50211;52.768;12.124;2023-05-10T10:39:48;4.97;;;3.25;;
64011;SDS011;50211;52.768;12.124;2023-05-10T10:42:14;11.93;;;8.15;;
64011;SDS011;50211;52.768;12.124;2023-05-10T10:45:11;9.90;;;4.88;;
64011;SDS011;50211;52.768;12.124;2023-05-10T10:47:38;4.43;;;3.45;;
64011;SDS011;50211;52.768;12.124;2023-05-10T10:50:05;3.83;;;3.28;;
64011;SDS011;50211;52.768;12.124;2023-05-10T10:52:33;5.13;;;4.35;;
64011;SDS011;50211;52.768;12.124;2023-05-10T10:54:59;54.40;;;19.80;;
64011;SDS011;50211;52.768;12.124;2023-05-10T10:57:50;66.78;;;20.60;;
64011;SDS011;50211;52.768;12.124;2023-05-10T11:02:50;27.10;;;8.98;;
64011;SDS011;50211;52.768;12.124;2023-05-10T11:08:15;64.00;;;19.13;;
64011;SDS011;50211;52.768;12.124;2023-05-10T11:11:24;127.18;;;37.00;;
64011;SDS011;50211;52.768;12.124;2023-05-10T11:16:16;118.72;;;34.40;;
64011;SDS011;50211;52.768;12.124;2023-05-10T11:21:18;86.85;;;42.10;;
64011;SDS011;50211;52.768;12.124;2023-05-10T11:26:10;12.43;;;6.15;;
64011;SDS011;50211;52.768;12.124;2023-05-10T11:28:43;23.13;;;8.00;;
64011;SDS011;50211;52.768;12.124;2023-05-10T11:31:18;11.38;;;5.05;;
64011;SDS011;50211;52.768;12.124;2023-05-10T11:33:48;4.80;;;2.95;;
64011;SDS011;50211;52.768;12.124;2023-05-10T11:36:16;5.32;;;3.17;;
64011;SDS011;50211;52.768;12.124;2023-05-10T11:38:43;11.38;;;3.15;;
64011;SDS011;50211;52.768;12.124;2023-05-10T11:41:09;3.38;;;3.05;;
64011;SDS011;50211;52.768;12.124;2023-05-10T11:43:36;270.35;;;19.92;;
64011;SDS011;50211;52.768;12.124;2023-05-10T11:46:07;20.73;;;7.18;;
64011;SDS011;50211;52.768;12.124;2023-05-10T11:48:39;5.47;;;3.20;;
64011;SDS011;50211;52.768;12.124;2023-05-10T11:51:06;13.13;;;5.82;;
64011;SDS011;50211;52.768;12.124;2023-05-10T11:53:33;4.65;;;3.05;;
64011;SDS011;50211;52.768;12.124;2023-05-10T11:56:08;16.77;;;6.88;;
64011;SDS011;50211;52.768;12.124;2023-05-10T11:58:35;44.78;;;12.40;;
64011;SDS011;50211;52.768;12.124;2023-05-10T12:01:02;5.25;;;3.10;;
64011;SDS011;50211;52.768;12.124;2023-05-10T12:03:28;7.15;;;3.10;;
64011;SDS011;50211;52.768;12.124;2023-05-10T12:05:55;5.22;;;3.00;;
64011;SDS011;50211;52.768;12.124;2023-05-10T12:08:22;5.78;;;3.35;;
64011;SDS011;50211;52.768;12.124;2023-05-10T12:10:49;5.38;;;3.03;;
64011;SDS011;50211;52.768;12.124;2023-05-10T12:13:14;4.15;;;3.20;;
64011;SDS011;50211;52.768;12.124;2023-05-10T12:15:40;4.32;;;3.05;;
64011;SDS011;50211;52.768;12.124;2023-05-10T12:18:10;4.15;;;3.33;;
64011;SDS011;50211;52.768;12.124;2023-05-10T12:20:37;6.93;;;3.40;;
64011;SDS011;50211;52.768;12.124;2023-05-10T12:23:03;9.38;;;3.13;;
64011;SDS011;50211;52.768;12.124;2023-05-10T12:25:31;5.50;;;3.25;;
64011;SDS011;50211;52.768;12.124;2023-05-10T12:28:02;4.57;;;2.92;;
64011;SDS011;50211;52.768;12.124;2023-05-10T12:30:30;15.80;;;5.72;;
64011;SDS011;50211;52.768;12.124;2023-05-10T12:33:10;36.25;;;11.55;;
64011;SDS011;50211;52.768;12.124;2023-05-10T12:35:46;6.75;;;3.03;;
64011;SDS011;50211;52.768;12.124;2023-05-10T12:40:59;8.35;;;3.75;;
64011;SDS011;50211;52.768;12.124;2023-05-10T12:43:25;4.25;;;3.28;;
64011;SDS011;50211;52.768;12.124;2023-05-10T12:45:51;3.85;;;3.50;;
64011;SDS011;50211;52.768;12.124;2023-05-10T12:48:17;8.77;;;4.35;;
64011;SDS011;50211;52.768;12.124;2023-05-10T12:50:42;4.00;;;3.50;;
64011;SDS011;50211;52.768;12.124;2023-05-10T12:53:08;5.35;;;4.07;;
64011;SDS011;50211;52.768;12.124;2023-05-10T12:55:33;6.82;;;3.75;;
64011;SDS011;50211;52.768;12.124;2023-05-10T12:57:59;4.43;;;4.03;;
64011;SDS011;50211;52.768;12.124;2023-05-10T13:00:25;6.75;;;3.65;;
64011;SDS011;50211;52.768;12.124;2023-05-10T13:02:50;5.45;;;3.60;;
64011;SDS011;50211;52.768;12.124;2023-05-10T13:05:16;4.15;;;3.15;;
64011;SDS011;50211;52.768;12.124;2023-05-10T13:07:41;6.07;;;3.60;;
64011;SDS011;50211;52.768;12.124;2023-05-10T13:10:08;6.18;;;3.80;;
64011;SDS011;50211;52.768;12.124;2023-05-10T13:12:35;6.53;;;3.97;;
64011;SDS011;50211;52.768;12.124;2023-05-10T13:15:00;4.45;;;3.25;;
64011;SDS011;50211;52.768;12.124;2023-05-10T13:17:27;6.60;;;3.92;;
64011;SDS011;50211;52.768;12.124;2023-05-10T13:19:53;5.53;;;3.83;;
64011;SDS011;50211;52.768;12.124;2023-05-10T13:22:18;5.68;;;3.30;;
64011;SDS011;50211;52.768;12.124;2023-05-10T13:24:44;5.53;;;3.60;;
64011;SDS011;50211;52.768;12.124;2023-05-10T13:27:09;9.23;;;3.35;;
64011;SDS011;50211;52.768;12.124;2023-05-10T13:29:35;5.22;;;3.15;;
64011;SDS011;50211;52.768;12.124;2023-05-10T13:32:00;7.10;;;3.60;;
64011;SDS011;50211;52.768;12.124;2023-05-10T13:34:26;12.15;;;3.63;;
64011;SDS011;50211;52.768;12.124;2023-05-10T13:36:52;4.75;;;3.45;;
64011;SDS011;50211;52.768;12.124;2023-05-10T13:39:18;4.00;;;2.97;;
64011;SDS011;50211;52.768;12.124;2023-05-10T13:41:45;4.80;;;3.40;;
64011;SDS011;50211;52.768;12.124;2023-05-10T13:44:12;5.72;;;3.30;;
64011;SDS011;50211;52.768;12.124;2023-05-10T13:46:40;5.45;;;3.00;;
64011;SDS011;50211;52.768;12.124;2023-05-10T13:49:07;5.18;;;3.20;;
64011;SDS011;50211;52.768;12.124;2023-05-10T13:51:34;5.60;;;3.92;;
64011;SDS011;50211;52.768;12.124;2023-05-10T13:53:59;5.30;;;3.55;;
64011;SDS011;50211;52.768;12.124;2023-05-10T13:56:25;6.75;;;3.53;;
64011;SDS011;50211;52.768;12.124;2023-05-10T13:58:50;10.88;;;3.47;;
64011;SDS011;50211;52.768;12.124;2023-05-10T14:01:16;6.65;;;3.20;;
64011;SDS011;50211;52.768;12.124;2023-05-10T14:03:41;65.03;;;9.38;;
64011;SDS011;50211;52.768;12.124;2023-05-10T14:06:07;13.00;;;4.05;;
64011;SDS011;50211;52.768;12.124;2023-05-10T14:08:33;7.32;;;3.45;;
64011;SDS011;50211;52.768;12.124;2023-05-10T14:11:00;9.45;;;4.00;;
64011;SDS011;50211;52.768;12.124;2023-05-10T14:13:25;7.38;;;3.13;;
64011;SDS011;50211;52.768;12.124;2023-05-10T14:15:52;3.78;;;2.97;;
64011;SDS011;50211;52.768;12.124;2023-05-10T14:18:18;4.97;;;2.67;;
64011;SDS011;50211;52.768;12.124;2023-05-10T14:20:44;6.00;;;3.38;;
64011;SDS011;50211;52.768;12.124;2023-05-10T14:23:09;8.88;;;3.75;;
64011;SDS011;50211;52.768;12.124;2023-05-10T14:25:35;8.68;;;4.15;;
64011;SDS011;50211;52.768;12.124;2023-05-10T14:28:01;6.82;;;4.43;;
64011;SDS011;50211;52.768;12.124;2023-05-10T14:30:26;11.57;;;4.10;;
64011;SDS011;50211;52.768;12.124;2023-05-10T14:32:52;6.95;;;3.40;;
64011;SDS011;50211;52.768;12.124;2023-05-10T14:35:18;5.25;;;3.80;;
64011;SDS011;50211;52.768;12.124;2023-05-10T14:37:44;8.65;;;4.68;;
64011;SDS011;50211;52.768;12.124;2023-05-10T14:40:10;6.93;;;4.50;;
64011;SDS011;50211;52.768;12.124;2023-05-10T14:42:36;9.35;;;4.55;;
64011;SDS011;50211;52.768;12.124;2023-05-10T14:45:02;10.65;;;4.50;;
64011;SDS011;50211;52.768;12.124;2023-05-10T14:47:28;9.23;;;4.50;;
64011;SDS011;50211;52.768;12.124;2023-05-10T14:49:54;6.00;;;3.97;;
64011;SDS011;50211;52.768;12.124;2023-05-10T14:52:19;7.93;;;3.80;;
64011;SDS011;50211;52.768;12.124;2023-05-10T14:54:45;9.25;;;4.65;;
64011;SDS011;50211;52.768;12.124;2023-05-10T14:57:11;8.02;;;4.70;;
64011;SDS011;50211;52.768;12.124;2023-05-10T14:59:36;7.53;;;4.28;;
64011;SDS011;50211;52.768;12.124;2023-05-10T15:02:02;7.25;;;4.90;;
64011;SDS011;50211;52.768;12.124;2023-05-10T15:04:29;12.02;;;5.25;;